Time,TemperatureF,DewpointF,PressureIn,WindDirection,WindDirectionDegrees,WindSpeedMPH,WindSpeedGustMPH,Humidity,HourlyPrecipIn,Conditions,Clouds,dailyrainin,SoftwareType,DateUTC
2013-02-19 00:02:00,21.0,2.0,-100.00,WSW,245,2.0,7.0,44,-99.99,,,-99.99,,2013-02-19 05:02:00,
2013-02-19 00:13:00,21.0,2.0,-100.00,WSW,245,2.0,7.0,44,-99.99,,,-99.99,,2013-02-19 05:13:00,
2013-02-19 00:22:00,21.0,2.0,-100.00,WSW,245,2.0,7.0,44,-99.99,,,-99.99,,2013-02-19 05:22:00,
2013-02-19 00:32:00,21.0,0.0,-100.00,West,265,2.0,8.0,39,-99.99,,,-99.99,,2013-02-19 05:32:00,
2013-02-19 00:43:00,21.0,0.0,-100.00,SW,225,2.0,7.0,39,-99.99,,,-99.99,,2013-02-19 05:43:00,
2013-02-19 00:52:00,21.0,1.0,-100.00,SW,225,2.0,6.0,42,-99.99,,,-99.99,,2013-02-19 05:52:00,
2013-02-19 01:03:00,20.0,3.0,-100.00,SW,235,2.0,6.0,46,-99.99,,,-99.99,,2013-02-19 06:03:00,
2013-02-19 01:12:00,20.0,5.0,-100.00,WSW,245,2.0,7.0,51,-99.99,,,-99.99,,2013-02-19 06:12:00,
2013-02-19 01:22:00,20.0,4.0,-100.00,SW,225,2.0,6.0,49,-99.99,,,-99.99,,2013-02-19 06:22:00,
2013-02-19 01:32:00,21.0,1.0,-100.00,WSW,250,1.0,6.0,42,-99.99,,,-99.99,,2013-02-19 06:32:00,
2013-02-19 01:42:00,21.0,3.0,-100.00,SSW,195,1.0,7.0,45,-99.99,,,-99.99,,2013-02-19 06:42:00,
2013-02-19 01:52:00,20.0,3.0,-100.00,WSW,240,2.0,3.0,47,-99.99,,,-99.99,,2013-02-19 06:52:00,
2013-02-19 02:02:00,20.0,4.0,-100.00,SW,225,2.0,7.0,48,-99.99,,,-99.99,,2013-02-19 07:02:00,
2013-02-19 02:12:00,20.0,2.0,-100.00,SW,220,1.0,8.0,45,-99.99,,,-99.99,,2013-02-19 07:12:00,
2013-02-19 02:22:00,21.0,1.0,-100.00,SSE,160,0.0,5.0,41,-99.99,,,-99.99,,2013-02-19 07:22:00,
2013-02-19 02:32:00,21.0,5.0,-100.00,SW,220,2.0,7.0,50,-99.99,,,-99.99,,2013-02-19 07:32:00,
2013-02-19 02:42:00,21.0,3.0,-100.00,SW,225,3.0,8.0,44,-99.99,,,-99.99,,2013-02-19 07:42:00,
2013-02-19 02:52:00,22.0,2.0,-100.00,SW,225,3.0,8.0,41,-99.99,,,-99.99,,2013-02-19 07:52:00,
2013-02-19 03:02:00,22.0,2.0,-100.00,WSW,245,1.0,6.0,41,-99.99,,,-99.99,,2013-02-19 08:02:00,
2013-02-19 03:11:00,22.0,2.0,-100.00,SW,215,1.0,6.0,40,-99.99,,,-99.99,,2013-02-19 08:11:00,
2013-02-19 03:22:00,22.0,2.0,-100.00,South,180,1.0,5.0,42,-99.99,,,-99.99,,2013-02-19 08:22:00,
2013-02-19 03:32:00,21.0,4.0,-100.00,WSW,245,2.0,5.0,47,-99.99,,,-99.99,,2013-02-19 08:32:00,
2013-02-19 03:42:00,21.0,3.0,-100.00,WSW,240,1.0,5.0,44,-99.99,,,-99.99,,2013-02-19 08:42:00,
2013-02-19 03:52:00,21.0,5.0,-100.00,NW,310,1.0,5.0,51,-99.99,,,-99.99,,2013-02-19 08:52:00,
2013-02-19 04:02:00,20.0,5.0,-100.00,WSW,255,1.0,3.0,50,-99.99,,,-99.99,,2013-02-19 09:02:00,
2013-02-19 04:11:00,21.0,5.0,-100.00,SE,130,1.0,2.0,49,-99.99,,,-99.99,,2013-02-19 09:11:00,
2013-02-19 04:22:00,21.0,6.0,-100.00,SE,130,0.0,2.0,52,-99.99,,,-99.99,,2013-02-19 09:22:00,
2013-02-19 04:30:00,22.0,9.0,-100.00,South,180,0.0,2.0,57,-99.99,,,-99.99,,2013-02-19 09:30:00,
2013-02-19 04:32:00,21.0,7.0,-100.00,NW,325,0.0,5.0,53,-99.99,,,-99.99,,2013-02-19 09:32:00,
2013-02-19 04:42:00,21.0,9.0,-100.00,SE,145,0.0,1.0,58,-99.99,,,-99.99,,2013-02-19 09:42:00,
2013-02-19 04:52:00,21.0,6.0,-100.00,East,85,2.0,3.0,51,-99.99,,,-99.99,,2013-02-19 09:52:00,
2013-02-19 05:02:00,21.0,6.0,-100.00,East,85,2.0,3.0,51,-99.99,,,-99.99,,2013-02-19 10:02:00,
2013-02-19 05:11:00,22.0,9.0,-100.00,South,180,0.0,2.0,57,-99.99,,,-99.99,,2013-02-19 10:11:00,
2013-02-19 05:22:00,22.0,9.0,-100.00,South,180,0.0,2.0,57,-99.99,,,-99.99,,2013-02-19 10:22:00,
2013-02-19 05:42:00,22.0,9.0,-100.00,NW,320,0.0,1.0,56,-99.99,,,-99.99,,2013-02-19 10:42:00,
2013-02-19 05:52:00,22.0,9.0,-100.00,SW,235,0.0,2.0,56,-99.99,,,-99.99,,2013-02-19 10:52:00,
2013-02-19 06:01:00,23.0,12.0,-100.00,SW,220,1.0,2.0,64,-99.99,,,-99.99,,2013-02-19 11:01:00,
2013-02-19 06:11:00,23.0,12.0,-100.00,SW,220,1.0,2.0,64,-99.99,,,-99.99,,2013-02-19 11:11:00,
2013-02-19 06:22:00,23.0,13.0,-100.00,South,180,0.0,2.0,65,-99.99,,,-99.99,,2013-02-19 11:22:00,
2013-02-19 06:32:00,24.0,10.0,-100.00,South,190,1.0,3.0,56,-99.99,,,-99.99,,2013-02-19 11:32:00,
2013-02-19 06:42:00,24.0,8.0,-100.00,SSW,210,1.0,5.0,49,-99.99,,,-99.99,,2013-02-19 11:42:00,
2013-02-19 06:52:00,24.0,8.0,-100.00,ESE,105,1.0,5.0,49,-99.99,,,-99.99,,2013-02-19 11:52:00,
2013-02-19 07:02:00,24.0,9.0,-100.00,South,190,1.0,5.0,50,-99.99,,,-99.99,,2013-02-19 12:02:00,
2013-02-19 07:12:00,25.0,9.0,-100.00,SSE,155,1.0,5.0,50,-99.99,,,-99.99,,2013-02-19 12:12:00,
2013-02-19 07:22:00,24.0,8.0,-100.00,SSE,150,1.0,3.0,49,-99.99,,,-99.99,,2013-02-19 12:22:00,
2013-02-19 07:32:00,24.0,9.0,-100.00,SSW,195,2.0,5.0,50,-99.99,,,-99.99,,2013-02-19 12:32:00,
2013-02-19 07:42:00,24.0,9.0,-100.00,SSW,195,1.0,2.0,51,-99.99,,,-99.99,,2013-02-19 12:42:00,
2013-02-19 07:52:00,24.0,8.0,-100.00,South,180,1.0,3.0,49,-99.99,,,-99.99,,2013-02-19 12:52:00,
2013-02-19 08:02:00,24.0,8.0,-100.00,South,190,2.0,6.0,50,-99.99,,,-99.99,,2013-02-19 13:02:00,
2013-02-19 08:11:00,24.0,9.0,-100.00,SW,230,1.0,8.0,50,-99.99,,,-99.99,,2013-02-19 13:11:00,
2013-02-19 08:22:00,25.0,9.0,-100.00,South,170,1.0,5.0,51,-99.99,,,-99.99,,2013-02-19 13:22:00,
2013-02-19 08:32:00,25.0,9.0,-100.00,South,170,2.0,6.0,51,-99.99,,,-99.99,,2013-02-19 13:32:00,
2013-02-19 08:42:00,25.0,9.0,-100.00,South,190,1.0,6.0,50,-99.99,,,-99.99,,2013-02-19 13:42:00,
2013-02-19 08:52:00,26.0,9.0,-100.00,SSE,150,1.0,7.0,49,-99.99,,,-99.99,,2013-02-19 13:52:00,
2013-02-19 09:02:00,27.0,9.0,-100.00,North,10,1.0,6.0,47,-99.99,,,-99.99,,2013-02-19 14:02:00,
2013-02-19 09:12:00,28.0,10.0,-100.00,SSW,195,1.0,6.0,46,-99.99,,,-99.99,,2013-02-19 14:12:00,
2013-02-19 09:22:00,29.0,10.0,-100.00,SSW,195,2.0,8.0,45,-99.99,,,-99.99,,2013-02-19 14:22:00,
2013-02-19 09:33:00,30.0,10.0,-100.00,SSW,200,1.0,5.0,43,-99.99,,,-99.99,,2013-02-19 14:33:00,
2013-02-19 09:42:00,31.0,10.0,-100.00,SSW,210,3.0,6.0,42,-99.99,,,-99.99,,2013-02-19 14:42:00,
2013-02-19 09:52:00,31.0,10.0,-100.00,SSW,210,3.0,6.0,42,-99.99,,,-99.99,,2013-02-19 14:52:00,
2013-02-19 10:02:00,33.0,11.0,-100.00,South,170,2.0,7.0,41,-99.99,,,-99.99,,2013-02-19 15:02:00,
2013-02-19 10:11:00,34.0,12.0,-100.00,SSW,205,2.0,6.0,41,-99.99,,,-99.99,,2013-02-19 15:11:00,
2013-02-19 10:22:00,34.0,14.0,-100.00,SSE,155,1.0,7.0,44,-99.99,,,-99.99,,2013-02-19 15:22:00,
2013-02-19 10:30:00,38.0,18.0,-100.00,SSE,160,2.0,7.0,44,-99.99,,,-99.99,,2013-02-19 15:30:00,
2013-02-19 10:32:00,35.0,15.0,-100.00,SW,220,2.0,7.0,44,-99.99,,,-99.99,,2013-02-19 15:32:00,
2013-02-19 10:42:00,36.0,17.0,-100.00,NW,310,1.0,6.0,45,-99.99,,,-99.99,,2013-02-19 15:42:00,
2013-02-19 11:11:00,38.0,18.0,-100.00,SSE,160,2.0,7.0,44,-99.99,,,-99.99,,2013-02-19 16:11:00,
2013-02-19 11:22:00,38.0,18.0,-100.00,SSE,160,2.0,7.0,44,-99.99,,,-99.99,,2013-02-19 16:22:00,
2013-02-19 11:42:00,39.0,21.0,-100.00,WSW,240,2.0,9.0,47,-99.99,,,-99.99,,2013-02-19 16:42:00,
2013-02-19 11:52:00,39.0,21.0,-100.00,WSW,240,2.0,9.0,47,-99.99,,,-99.99,,2013-02-19 16:52:00,
2013-02-19 12:01:00,41.0,22.0,-100.00,South,175,1.0,9.0,47,-99.99,,,-99.99,,2013-02-19 17:01:00,
2013-02-19 12:11:00,41.0,23.0,-100.00,ESE,110,3.0,10.0,47,-99.99,,,-99.99,,2013-02-19 17:11:00,
2013-02-19 12:21:00,42.0,22.0,-100.00,SSE,155,5.0,10.0,46,-99.99,,,-99.99,,2013-02-19 17:21:00,
2013-02-19 12:32:00,43.0,23.0,-100.00,SW,230,2.0,9.0,45,-99.99,,,-99.99,,2013-02-19 17:32:00,
2013-02-19 12:42:00,43.0,24.0,-100.00,ESE,105,3.0,9.0,48,-99.99,,,-99.99,,2013-02-19 17:42:00,
2013-02-19 12:52:00,44.0,24.0,-100.00,SSE,150,3.0,8.0,45,-99.99,,,-99.99,,2013-02-19 17:52:00,
2013-02-19 13:02:00,45.0,25.0,-100.00,SSE,165,1.0,8.0,46,-99.99,,,-99.99,,2013-02-19 18:02:00,
2013-02-19 13:11:00,45.0,25.0,-100.00,SE,125,2.0,6.0,45,-99.99,,,-99.99,,2013-02-19 18:11:00,
2013-02-19 13:21:00,45.0,25.0,-100.00,ESE,120,1.0,7.0,45,-99.99,,,-99.99,,2013-02-19 18:21:00,
2013-02-19 13:32:00,46.0,25.0,-100.00,SSE,160,6.0,12.0,44,-99.99,,,-99.99,,2013-02-19 18:32:00,
2013-02-19 13:42:00,46.0,25.0,-100.00,South,170,3.0,12.0,44,-99.99,,,-99.99,,2013-02-19 18:42:00,
2013-02-19 13:52:00,46.0,26.0,-100.00,SSE,155,7.0,13.0,46,-99.99,,,-99.99,,2013-02-19 18:52:00,
2013-02-19 14:01:00,46.0,26.0,-100.00,SSE,165,2.0,13.0,46,-99.99,,,-99.99,,2013-02-19 19:01:00,
2013-02-19 14:11:00,46.0,27.0,-100.00,South,175,5.0,9.0,47,-99.99,,,-99.99,,2013-02-19 19:11:00,
2013-02-19 14:21:00,46.0,27.0,-100.00,SSE,165,2.0,10.0,48,-99.99,,,-99.99,,2013-02-19 19:21:00,
2013-02-19 14:32:00,46.0,27.0,-100.00,SE,125,2.0,6.0,47,-99.99,,,-99.99,,2013-02-19 19:32:00,
2013-02-19 14:42:00,47.0,28.0,-100.00,East,90,0.0,6.0,47,-99.99,,,-99.99,,2013-02-19 19:42:00,
2013-02-19 14:52:00,47.0,28.0,-100.00,East,90,0.0,6.0,47,-99.99,,,-99.99,,2013-02-19 19:52:00,
2013-02-19 15:02:00,46.0,28.0,-100.00,South,180,1.0,10.0,49,-99.99,,,-99.99,,2013-02-19 20:02:00,
2013-02-19 15:12:00,46.0,27.0,-100.00,SW,215,2.0,7.0,47,-99.99,,,-99.99,,2013-02-19 20:12:00,
2013-02-19 15:22:00,46.0,27.0,-100.00,South,175,6.0,14.0,46,-99.99,,,-99.99,,2013-02-19 20:22:00,
2013-02-19 15:32:00,46.0,27.0,-100.00,WSW,240,2.0,9.0,47,-99.99,,,-99.99,,2013-02-19 20:32:00,
2013-02-19 15:42:00,46.0,27.0,-100.00,SSE,165,2.0,12.0,48,-99.99,,,-99.99,,2013-02-19 20:42:00,
2013-02-19 15:52:00,46.0,28.0,-100.00,SSW,205,2.0,12.0,50,-99.99,,,-99.99,,2013-02-19 20:52:00,
2013-02-19 16:02:00,46.0,28.0,-100.00,ESE,110,2.0,9.0,50,-99.99,,,-99.99,,2013-02-19 21:02:00,
2013-02-19 16:10:00,46.0,30.0,-100.00,South,180,2.0,13.0,54,-99.99,,,-99.99,,2013-02-19 21:10:00,
2013-02-19 16:11:00,46.0,29.0,-100.00,South,185,3.0,8.0,51,-99.99,,,-99.99,,2013-02-19 21:11:00,
2013-02-19 16:21:00,46.0,28.0,-100.00,South,170,2.0,14.0,50,-99.99,,,-99.99,,2013-02-19 21:21:00,
2013-02-19 16:32:00,46.0,29.0,-100.00,SSE,160,5.0,9.0,51,-99.99,,,-99.99,,2013-02-19 21:32:00,
2013-02-19 16:42:00,46.0,30.0,-100.00,SE,125,3.0,10.0,53,-99.99,,,-99.99,,2013-02-19 21:42:00,
2013-02-19 16:51:00,46.0,30.0,-100.00,South,180,2.0,13.0,54,-99.99,,,-99.99,,2013-02-19 21:51:00,
2013-02-19 17:02:00,46.0,30.0,-100.00,South,180,2.0,13.0,54,-99.99,,,-99.99,,2013-02-19 22:02:00,
2013-02-19 18:01:00,41.0,35.0,-100.00,SSE,155,2.0,6.0,81,-99.99,,,-99.99,,2013-02-19 23:01:00,
2013-02-19 18:11:00,41.0,36.0,-100.00,SSE,160,2.0,7.0,84,-99.99,,,-99.99,,2013-02-19 23:11:00,
2013-02-19 18:21:00,41.0,36.0,-100.00,ENE,70,2.0,6.0,85,-99.99,,,-99.99,,2013-02-19 23:21:00,
2013-02-19 18:32:00,41.0,37.0,-100.00,East,85,1.0,6.0,86,-99.99,,,-99.99,,2013-02-19 23:32:00,
2013-02-19 18:42:00,41.0,38.0,-100.00,SSW,200,1.0,5.0,87,-99.99,,,-99.99,,2013-02-19 23:42:00,
2013-02-19 18:52:00,41.0,38.0,-100.00,SSE,150,2.0,5.0,88,-99.99,,,-99.99,,2013-02-19 23:52:00,
2013-02-19 19:02:00,40.0,37.0,-100.00,East,85,0.0,5.0,88,-99.99,,,-99.99,,2013-02-20 00:02:00,
2013-02-19 19:11:00,41.0,38.0,-100.00,South,175,2.0,6.0,89,-99.99,,,-99.99,,2013-02-20 00:11:00,
2013-02-19 19:22:00,41.0,38.0,-100.00,ESE,110,2.0,7.0,90,-99.99,,,-99.99,,2013-02-20 00:22:00,
2013-02-19 19:42:00,41.0,38.0,-100.00,SE,125,1.0,9.0,90,-99.99,,,-99.99,,2013-02-20 00:42:00,
2013-02-19 19:52:00,41.0,38.0,-100.00,SE,125,1.0,9.0,90,-99.99,,,-99.99,,2013-02-20 00:52:00,
2013-02-19 20:02:00,41.0,38.0,-100.00,South,190,3.0,8.0,91,-99.99,,,-99.99,,2013-02-20 01:02:00,
2013-02-19 20:11:00,41.0,39.0,-100.00,East,90,2.0,7.0,92,-99.99,,,-99.99,,2013-02-20 01:11:00,
2013-02-19 20:22:00,41.0,39.0,-100.00,South,180,2.0,9.0,92,-99.99,,,-99.99,,2013-02-20 01:22:00,
2013-02-19 20:32:00,41.0,39.0,-100.00,East,90,2.0,7.0,92,-99.99,,,-99.99,,2013-02-20 01:32:00,
2013-02-19 20:42:00,41.0,39.0,-100.00,East,80,2.0,9.0,92,-99.99,,,-99.99,,2013-02-20 01:42:00,
2013-02-19 20:52:00,41.0,39.0,-100.00,North,350,2.0,13.0,93,-99.99,,,-99.99,,2013-02-20 01:52:00,
2013-02-19 21:02:00,42.0,40.0,-100.00,SE,145,5.0,12.0,94,-99.99,,,-99.99,,2013-02-20 02:02:00,
2013-02-19 21:11:00,42.0,40.0,-100.00,SSW,195,1.0,7.0,93,-99.99,,,-99.99,,2013-02-20 02:11:00,
2013-02-19 21:22:00,42.0,40.0,-100.00,SE,145,2.0,6.0,93,-99.99,,,-99.99,,2013-02-20 02:22:00,
2013-02-19 21:32:00,42.0,40.0,-100.00,SE,125,2.0,5.0,93,-99.99,,,-99.99,,2013-02-20 02:32:00,
2013-02-19 21:42:00,42.0,40.0,-100.00,NNE,20,1.0,3.0,93,-99.99,,,-99.99,,2013-02-20 02:42:00,
2013-02-19 21:52:00,42.0,40.0,-100.00,NNE,20,1.0,3.0,93,-99.99,,,-99.99,,2013-02-20 02:52:00,
2013-02-19 22:00:00,41.0,39.0,-100.00,SSE,155,0.0,5.0,94,-99.99,,,-99.99,,2013-02-20 03:00:00,
2013-02-19 22:02:00,40.0,39.0,-100.00,South,175,2.0,5.0,93,-99.99,,,-99.99,,2013-02-20 03:02:00,
2013-02-19 22:12:00,41.0,39.0,-100.00,NW,305,2.0,8.0,94,-99.99,,,-99.99,,2013-02-20 03:12:00,
2013-02-19 22:22:00,42.0,40.0,-100.00,South,190,2.0,5.0,95,-99.99,,,-99.99,,2013-02-20 03:22:00,
2013-02-19 22:32:00,41.0,40.0,-100.00,South,185,1.0,6.0,94,-99.99,,,-99.99,,2013-02-20 03:32:00,
2013-02-19 22:42:00,41.0,39.0,-100.00,SSE,155,0.0,5.0,94,-99.99,,,-99.99,,2013-02-20 03:42:00,
2013-02-19 22:52:00,41.0,39.0,-100.00,SSE,155,0.0,5.0,94,-99.99,,,-99.99,,2013-02-20 03:52:00,